Time;durP1;ratioP1;P1;durP2;ratioP2;P2;SDS_P1;SDS_P2;PMS_P1;PMS_P2;Temp;Humidity;BMP_temperature;BMP_pressure;BME280_temperature;BME280_humidity;BME280_pressure;Samples;Min_cycle;Max_cycle;Signal;HPM_P1;HPM_P2
2023/09/14 00:00:27;;;;;;;16.58;5.68;;;;;;;;;;5016513;28;20461;-70
2023/09/14 00:02:53;;;;;;;14.90;6.32;;;;;;;;;;5013959;28;20031;-70
2023/09/14 00:05:19;;;;;;;21.20;6.50;;;;;;;;;;5017826;28;20040;-70
2023/09/14 00:07:45;;;;;;;12.73;6.15;;;;;;;;;;5015542;28;20116;-70
2023/09/14 00:10:11;;;;;;;18.15;6.10;;;;;;;;;;5019297;28;20040;-70
2023/09/14 00:12:38;;;;;;;17.58;6.40;;;;;;;;;;5013439;28;20042;-70
2023/09/14 00:15:04;;;;;;;18.23;7.22;;;;;;;;;;5014469;28;20407;-70
2023/09/14 00:17:30;;;;;;;19.00;6.85;;;;;;;;;;5017649;28;20398;-70
2023/09/14 00:19:56;;;;;;;15.68;6.32;;;;;;;;;;5014952;28;20046;-70
2023/09/14 00:22:22;;;;;;;13.15;6.20;;;;;;;;;;5014283;28;20493;-71
2023/09/14 00:24:48;;;;;;;15.23;6.90;;;;;;;;;;5016866;28;20430;-71
2023/09/14 00:27:14;;;;;;;14.27;5.88;;;;;;;;;;5012873;28;20047;-71
2023/09/14 00:29:41;;;;;;;23.83;6.57;;;;;;;;;;5017109;28;20454;-71
2023/09/14 00:32:07;;;;;;;14.70;6.60;;;;;;;;;;5009172;28;20030;-71
2023/09/14 00:34:33;;;;;;;19.58;6.30;;;;;;;;;;5017492;28;20033;-71
2023/09/14 00:36:59;;;;;;;16.67;6.72;;;;;;;;;;5017736;28;20121;-70
2023/09/14 00:39:25;;;;;;;20.40;6.63;;;;;;;;;;5022568;28;20067;-70
2023/09/14 00:41:51;;;;;;;15.77;6.93;;;;;;;;;;5015756;28;20030;-70
2023/09/14 00:44:18;;;;;;;13.35;6.60;;;;;;;;;;5020302;28;20124;-70
2023/09/14 00:46:44;;;;;;;13.40;6.15;;;;;;;;;;5019463;28;20160;-70
2023/09/14 00:49:10;;;;;;;15.95;7.07;;;;;;;;;;5021509;28;20034;-72
2023/09/14 00:51:37;;;;;;;23.73;6.85;;;;;;;;;;5018677;28;20042;-70
2023/09/14 00:54:03;;;;;;;14.68;6.53;;;;;;;;;;5015297;28;20029;-70
2023/09/14 00:56:30;;;;;;;16.40;7.40;;;;;;;;;;5011907;28;20550;-70
2023/09/14 00:58:56;;;;;;;17.95;7.43;;;;;;;;;;5012672;28;21422;-70
2023/09/14 01:01:23;;;;;;;17.35;7.30;;;;;;;;;;5014786;28;20057;-69
2023/09/14 01:03:50;;;;;;;16.88;7.30;;;;;;;;;;5013468;28;20398;-69
2023/09/14 01:06:16;;;;;;;22.92;7.97;;;;;;;;;;5018998;28;20116;-70
2023/09/14 01:08:42;;;;;;;17.83;7.78;;;;;;;;;;5015667;28;20058;-70
2023/09/14 01:11:10;;;;;;;19.80;8.02;;;;;;;;;;5011952;28;20036;-70
2023/09/14 01:13:43;;;;;;;22.83;9.15;;;;;;;;;;5015837;28;20033;-70
2023/09/14 01:16:15;;;;;;;21.27;8.10;;;;;;;;;;5016991;28;20034;-71
2023/09/14 01:18:53;;;;;;;18.63;8.68;;;;;;;;;;5012571;28;20143;-71
2023/09/14 01:21:34;;;;;;;22.20;8.38;;;;;;;;;;5018819;28;20473;-69
2023/09/14 01:24:36;;;;;;;22.02;8.13;;;;;;;;;;5013334;28;20021;-71
2023/09/14 01:27:03;;;;;;;21.00;8.85;;;;;;;;;;4953920;28;20027;-71
2023/09/14 01:29:30;;;;;;;32.47;8.95;;;;;;;;;;5006443;28;20344;-71
2023/09/14 01:31:56;;;;;;;20.77;8.75;;;;;;;;;;5028659;28;20411;-71
2023/09/14 01:34:22;;;;;;;23.20;8.70;;;;;;;;;;5004347;28;20061;-70
2023/09/14 01:36:54;;;;;;;24.95;8.93;;;;;;;;;;5006189;28;20018;-70
2023/09/14 01:39:21;;;;;;;21.33;8.40;;;;;;;;;;5009570;28;20049;-71
2023/09/14 01:41:54;;;;;;;17.13;7.70;;;;;;;;;;5013665;28;20030;-71
2023/09/14 01:44:21;;;;;;;16.30;7.57;;;;;;;;;;5025607;28;20113;-71
2023/09/14 01:46:48;;;;;;;18.60;7.70;;;;;;;;;;5013020;28;20060;-71
2023/09/14 01:49:14;;;;;;;13.40;7.20;;;;;;;;;;5014841;28;20069;-71
2023/09/14 01:51:40;;;;;;;27.30;7.93;;;;;;;;;;5017107;28;20037;-71
2023/09/14 01:54:06;;;;;;;19.63;6.75;;;;;;;;;;4995918;28;20033;-71
2023/09/14 01:56:33;;;;;;;19.70;7.05;;;;;;;;;;5012724;28;20034;-71
2023/09/14 01:58:59;;;;;;;16.42;7.22;;;;;;;;;;5015726;28;20513;-71
2023/09/14 02:01:25;;;;;;;21.98;7.15;;;;;;;;;;5014068;28;20139;-71
2023/09/14 02:03:51;;;;;;;18.00;8.07;;;;;;;;;;4996996;28;20124;-71
2023/09/14 02:06:17;;;;;;;23.65;7.45;;;;;;;;;;5019893;28;20188;-70
2023/09/14 02:08:44;;;;;;;21.95;8.82;;;;;;;;;;5015531;28;20045;-69
2023/09/14 02:11:12;;;;;;;15.82;8.23;;;;;;;;;;5016812;28;20033;-69
2023/09/14 02:13:38;;;;;;;16.58;7.78;;;;;;;;;;5016661;28;20167;-70
2023/09/14 02:16:04;;;;;;;16.00;8.38;;;;;;;;;;5022585;28;20029;-70
2023/09/14 02:18:30;;;;;;;17.20;7.80;;;;;;;;;;5022782;28;20030;-71
2023/09/14 02:20:56;;;;;;;18.30;8.10;;;;;;;;;;5020372;28;20052;-70
2023/09/14 02:23:22;;;;;;;24.05;8.48;;;;;;;;;;5010144;28;20482;-70
2023/09/14 02:25:49;;;;;;;17.17;7.57;;;;;;;;;;5010819;28;20176;-70
2023/09/14 02:28:15;;;;;;;21.10;7.82;;;;;;;;;;5020317;28;20104;-71
2023/09/14 02:30:42;;;;;;;15.77;7.78;;;;;;;;;;5019543;28;20117;-70
2023/09/14 02:33:08;;;;;;;23.05;9.13;;;;;;;;;;5014366;28;20034;-70
2023/09/14 02:35:36;;;;;;;20.70;8.63;;;;;;;;;;5021623;28;20040;-71
2023/09/14 02:38:05;;;;;;;24.73;9.32;;;;;;;;;;5011022;28;20061;-71
2023/09/14 02:40:33;;;;;;;31.27;10.20;;;;;;;;;;5020435;28;20037;-71
2023/09/14 02:42:59;;;;;;;25.77;10.02;;;;;;;;;;5015569;28;20036;-71
2023/09/14 02:45:25;;;;;;;25.42;9.88;;;;;;;;;;5025647;28;20034;-71
2023/09/14 02:47:51;;;;;;;19.50;9.35;;;;;;;;;;5015766;28;20061;-71
2023/09/14 02:50:17;;;;;;;23.05;8.68;;;;;;;;;;5020054;28;20036;-71
2023/09/14 02:52:44;;;;;;;19.83;8.48;;;;;;;;;;5017048;28;20030;-71
2023/09/14 02:55:10;;;;;;;20.42;8.10;;;;;;;;;;5018012;28;20032;-71
2023/09/14 02:57:36;;;;;;;20.20;9.07;;;;;;;;;;5003494;28;20182;-71
2023/09/14 03:00:06;;;;;;;21.05;9.65;;;;;;;;;;5020085;28;20137;-71
2023/09/14 03:02:33;;;;;;;23.63;8.85;;;;;;;;;;5019068;28;20076;-71
2023/09/14 03:04:59;;;;;;;29.50;10.10;;;;;;;;;;5012840;28;20025;-71
2023/09/14 03:07:25;;;;;;;19.45;9.27;;;;;;;;;;5019710;28;20026;-71
2023/09/14 03:09:53;;;;;;;18.67;9.80;;;;;;;;;;5011041;28;20029;-70
2023/09/14 03:12:19;;;;;;;25.42;9.82;;;;;;;;;;5031261;28;20036;-70
2023/09/14 03:14:45;;;;;;;18.52;9.50;;;;;;;;;;5019247;28;20034;-72
2023/09/14 03:17:12;;;;;;;24.45;9.38;;;;;;;;;;5022438;28;20116;-71
2023/09/14 03:19:38;;;;;;;20.25;9.82;;;;;;;;;;5031511;28;20113;-71
2023/09/14 03:22:06;;;;;;;20.90;9.07;;;;;;;;;;5020324;28;20029;-71
2023/09/14 03:24:34;;;;;;;19.60;8.98;;;;;;;;;;5011341;28;20038;-72
2023/09/14 03:27:01;;;;;;;20.80;8.30;;;;;;;;;;5004372;28;20037;-71
2023/09/14 03:29:28;;;;;;;22.40;8.50;;;;;;;;;;5018488;28;20041;-71
2023/09/14 03:31:54;;;;;;;15.48;7.47;;;;;;;;;;5012227;28;20026;-71
2023/09/14 03:34:21;;;;;;;17.88;7.53;;;;;;;;;;5009496;28;20156;-71
2023/09/14 03:36:47;;;;;;;15.15;6.88;;;;;;;;;;5013261;28;20030;-70
2023/09/14 03:39:15;;;;;;;20.05;8.25;;;;;;;;;;5016836;28;20036;-71
2023/09/14 03:41:42;;;;;;;19.05;8.02;;;;;;;;;;5019109;28;20567;-70
2023/09/14 03:44:08;;;;;;;26.95;9.45;;;;;;;;;;5016374;28;20117;-70
2023/09/14 03:46:34;;;;;;;19.23;7.35;;;;;;;;;;5020172;28;20112;-70
2023/09/14 03:49:02;;;;;;;19.50;8.57;;;;;;;;;;5017849;28;20056;-71
2023/09/14 03:51:29;;;;;;;17.30;8.35;;;;;;;;;;5013117;28;20395;-71
2023/09/14 03:53:55;;;;;;;22.70;8.43;;;;;;;;;;5019658;28;20108;-71
2023/09/14 03:56:21;;;;;;;18.35;8.23;;;;;;;;;;5018495;28;20033;-71
2023/09/14 03:58:47;;;;;;;28.58;9.82;;;;;;;;;;4997995;28;20084;-71
2023/09/14 04:01:13;;;;;;;22.40;8.40;;;;;;;;;;5008877;28;20030;-71
2023/09/14 04:03:40;;;;;;;23.63;9.40;;;;;;;;;;5012496;28;20060;-71
2023/09/14 04:06:07;;;;;;;27.38;9.70;;;;;;;;;;5010296;28;20121;-71
2023/09/14 04:08:33;;;;;;;25.15;10.50;;;;;;;;;;5020016;28;20053;-71
2023/09/14 04:11:02;;;;;;;27.88;10.20;;;;;;;;;;5020660;28;20065;-71
2023/09/14 04:13:29;;;;;;;22.60;8.95;;;;;;;;;;5011402;28;20091;-71
2023/09/14 04:15:59;;;;;;;26.30;9.23;;;;;;;;;;5012975;28;20495;-71
2023/09/14 04:18:25;;;;;;;27.35;8.48;;;;;;;;;;5032872;28;20029;-71
2023/09/14 04:20:52;;;;;;;26.02;9.63;;;;;;;;;;5021276;28;20071;-71
2023/09/14 04:23:18;;;;;;;24.48;9.13;;;;;;;;;;5019767;28;20348;-71
2023/09/14 04:25:46;;;;;;;22.88;8.52;;;;;;;;;;5005250;28;20040;-71
2023/09/14 04:28:13;;;;;;;20.55;8.63;;;;;;;;;;5013811;28;20143;-71
2023/09/14 04:30:41;;;;;;;19.48;8.80;;;;;;;;;;5015652;28;20029;-71
2023/09/14 04:33:07;;;;;;;22.33;7.35;;;;;;;;;;5011547;28;20162;-71
2023/09/14 04:35:34;;;;;;;19.60;6.68;;;;;;;;;;4996848;28;20120;-71
2023/09/14 04:38:00;;;;;;;15.50;6.38;;;;;;;;;;5019372;28;20033;-71
2023/09/14 04:40:26;;;;;;;17.70;6.80;;;;;;;;;;5017810;28;20311;-71
2023/09/14 04:42:52;;;;;;;21.17;7.70;;;;;;;;;;5020765;28;20037;-71
2023/09/14 04:45:18;;;;;;;22.30;7.68;;;;;;;;;;5012316;28;20026;-71
2023/09/14 04:47:45;;;;;;;18.65;7.47;;;;;;;;;;5013345;28;20045;-72
2023/09/14 04:50:11;;;;;;;15.65;6.93;;;;;;;;;;5013422;28;20470;-71
2023/09/14 04:52:37;;;;;;;18.08;8.00;;;;;;;;;;5019428;28;20034;-71
2023/09/14 04:55:04;;;;;;;24.58;8.57;;;;;;;;;;5018999;28;20113;-71
2023/09/14 04:57:30;;;;;;;26.13;9.23;;;;;;;;;;5005066;28;20062;-71
2023/09/14 04:59:56;;;;;;;21.38;8.52;;;;;;;;;;5022370;28;20116;-71
2023/09/14 05:02:22;;;;;;;22.05;8.70;;;;;;;;;;5009449;28;20080;-71
2023/09/14 05:04:48;;;;;;;26.73;9.55;;;;;;;;;;5014894;28;20037;-72
2023/09/14 05:07:15;;;;;;;22.10;9.60;;;;;;;;;;4997247;28;20039;-71
2023/09/14 05:09:41;;;;;;;32.50;11.10;;;;;;;;;;4993270;28;20057;-71
2023/09/14 05:12:08;;;;;;;34.92;10.75;;;;;;;;;;5006390;28;20038;-71
2023/09/14 05:14:34;;;;;;;29.48;10.95;;;;;;;;;;5009675;28;20033;-71
2023/09/14 05:17:00;;;;;;;29.17;11.48;;;;;;;;;;5006626;28;20140;-71
2023/09/14 05:19:27;;;;;;;31.30;12.25;;;;;;;;;;5004824;28;20092;-71
2023/09/14 05:21:54;;;;;;;37.67;13.20;;;;;;;;;;5008619;28;20380;-70
2023/09/14 05:24:20;;;;;;;37.58;12.65;;;;;;;;;;5008125;28;20072;-71
2023/09/14 05:26:47;;;;;;;28.40;10.35;;;;;;;;;;5003699;28;20132;-71
2023/09/14 05:29:14;;;;;;;15.63;7.57;;;;;;;;;;5007437;28;20060;-71
2023/09/14 05:31:40;;;;;;;15.05;7.60;;;;;;;;;;5014422;28;20042;-71
2023/09/14 05:34:07;;;;;;;21.23;7.60;;;;;;;;;;5017889;28;20029;-71
2023/09/14 05:36:33;;;;;;;16.60;7.80;;;;;;;;;;5017826;28;20065;-71
2023/09/14 05:38:59;;;;;;;16.52;7.43;;;;;;;;;;5017233;28;20055;-71
2023/09/14 05:41:25;;;;;;;21.77;8.00;;;;;;;;;;5021172;28;20329;-71
2023/09/14 05:43:51;;;;;;;22.05;8.48;;;;;;;;;;5014056;28;20109;-70
2023/09/14 05:46:17;;;;;;;20.75;9.10;;;;;;;;;;5014179;28;20091;-71
2023/09/14 05:48:44;;;;;;;22.73;8.65;;;;;;;;;;5013376;28;20049;-71
2023/09/14 05:51:10;;;;;;;23.77;8.90;;;;;;;;;;5011618;28;20150;-71
2023/09/14 05:53:36;;;;;;;23.95;9.63;;;;;;;;;;5004158;28;20342;-71
2023/09/14 05:56:04;;;;;;;26.30;9.95;;;;;;;;;;5020026;28;20064;-71
2023/09/14 05:58:31;;;;;;;26.52;10.15;;;;;;;;;;5012980;28;20095;-70
2023/09/14 06:01:00;;;;;;;28.20;10.10;;;;;;;;;;5014488;28;20080;-71
2023/09/14 06:03:26;;;;;;;25.45;11.02;;;;;;;;;;5017457;28;20070;-71
2023/09/14 06:05:53;;;;;;;34.38;11.27;;;;;;;;;;5002590;28;20038;-70
2023/09/14 06:08:20;;;;;;;28.98;11.45;;;;;;;;;;5020402;28;20030;-71
2023/09/14 06:10:46;;;;;;;29.20;11.85;;;;;;;;;;5022108;28;20042;-71
2023/09/14 06:13:12;;;;;;;26.33;11.57;;;;;;;;;;5002959;28;20033;-70
2023/09/14 06:15:39;;;;;;;36.80;12.57;;;;;;;;;;5004520;28;20545;-72
2023/09/14 06:18:05;;;;;;;34.17;14.63;;;;;;;;;;5002491;28;20045;-70
2023/09/14 06:20:31;;;;;;;26.23;13.30;;;;;;;;;;5000208;28;20033;-72
2023/09/14 06:22:57;;;;;;;38.42;14.82;;;;;;;;;;5003572;28;20041;-71
2023/09/14 06:25:23;;;;;;;30.65;14.13;;;;;;;;;;5003872;28;20435;-69
2023/09/14 06:27:49;;;;;;;32.22;13.93;;;;;;;;;;5012747;28;20021;-70
2023/09/14 06:30:15;;;;;;;32.03;12.75;;;;;;;;;;5012136;28;20037;-71
2023/09/14 06:32:42;;;;;;;33.70;14.23;;;;;;;;;;5009844;28;20100;-70
2023/09/14 06:35:08;;;;;;;24.85;12.18;;;;;;;;;;5007686;28;20038;-70
2023/09/14 06:37:34;;;;;;;35.33;12.13;;;;;;;;;;5003833;28;20463;-70
2023/09/14 06:40:00;;;;;;;26.58;11.65;;;;;;;;;;4989365;28;20030;-70
2023/09/14 06:42:27;;;;;;;26.75;11.80;;;;;;;;;;4996441;28;20069;-70
2023/09/14 06:44:53;;;;;;;21.15;9.68;;;;;;;;;;5008683;28;20494;-71
2023/09/14 06:47:19;;;;;;;23.35;10.70;;;;;;;;;;5007209;28;20092;-71
2023/09/14 06:49:45;;;;;;;19.77;10.13;;;;;;;;;;5009403;28;20067;-71
2023/09/14 06:52:11;;;;;;;20.25;9.20;;;;;;;;;;5009523;28;20423;-71
2023/09/14 06:54:37;;;;;;;28.33;11.40;;;;;;;;;;5007610;28;20120;-70
2023/09/14 06:57:04;;;;;;;20.23;9.45;;;;;;;;;;5005206;28;20033;-71
2023/09/14 06:59:30;;;;;;;24.75;10.57;;;;;;;;;;4998899;28;20560;-71
2023/09/14 07:01:56;;;;;;;20.75;9.52;;;;;;;;;;4993161;28;20128;-71
2023/09/14 07:04:22;;;;;;;26.13;10.52;;;;;;;;;;4996776;28;20100;-71
2023/09/14 07:06:49;;;;;;;23.17;9.57;;;;;;;;;;5012751;28;20030;-70
2023/09/14 07:09:15;;;;;;;25.60;9.85;;;;;;;;;;5012823;28;20124;-70
2023/09/14 07:11:41;;;;;;;26.80;11.15;;;;;;;;;;5010097;28;20041;-70
2023/09/14 07:14:08;;;;;;;25.25;9.70;;;;;;;;;;5004304;28;20093;-70
2023/09/14 07:16:34;;;;;;;20.45;9.63;;;;;;;;;;4999669;28;20042;-70
2023/09/14 07:19:00;;;;;;;19.65;9.05;;;;;;;;;;4999294;28;20063;-70
2023/09/14 07:21:27;;;;;;;25.60;9.07;;;;;;;;;;5011141;28;20112;-71
2023/09/14 07:23:53;;;;;;;16.20;8.70;;;;;;;;;;5010965;28;20041;-70
2023/09/14 07:26:19;;;;;;;24.13;9.10;;;;;;;;;;5002039;28;20041;-70
2023/09/14 07:28:45;;;;;;;17.95;8.02;;;;;;;;;;4992493;28;20551;-71
2023/09/14 07:31:11;;;;;;;21.42;9.70;;;;;;;;;;5003407;28;20038;-71
2023/09/14 07:33:38;;;;;;;19.00;7.43;;;;;;;;;;4997353;28;20066;-70
2023/09/14 07:36:04;;;;;;;17.42;7.32;;;;;;;;;;4992404;28;20034;-69
2023/09/14 07:38:30;;;;;;;20.67;6.93;;;;;;;;;;4992100;28;20041;-70
2023/09/14 07:40:56;;;;;;;19.90;6.85;;;;;;;;;;4999953;28;20589;-70
2023/09/14 07:43:25;;;;;;;18.05;7.05;;;;;;;;;;5011630;28;20377;-72
2023/09/14 07:45:51;;;;;;;20.45;7.18;;;;;;;;;;5010843;28;20030;-70
2023/09/14 07:48:18;;;;;;;19.30;6.57;;;;;;;;;;5009969;28;20041;-70
2023/09/14 07:50:44;;;;;;;15.82;6.47;;;;;;;;;;5011944;28;20096;-69
2023/09/14 07:53:10;;;;;;;18.33;6.70;;;;;;;;;;5010121;28;20045;-70
2023/09/14 07:55:37;;;;;;;17.83;6.80;;;;;;;;;;5008892;28;20030;-70
2023/09/14 07:58:03;;;;;;;21.58;6.82;;;;;;;;;;5011190;28;20038;-69
2023/09/14 08:00:30;;;;;;;13.57;6.35;;;;;;;;;;5011491;28;20105;-70
2023/09/14 08:02:56;;;;;;;24.17;6.95;;;;;;;;;;5011165;28;20098;-69
2023/09/14 08:05:22;;;;;;;18.63;7.07;;;;;;;;;;5011302;28;20054;-69
2023/09/14 08:07:48;;;;;;;13.38;6.05;;;;;;;;;;5010281;28;20030;-69
2023/09/14 08:10:14;;;;;;;19.23;6.22;;;;;;;;;;5005546;28;20085;-69
2023/09/14 08:12:40;;;;;;;18.20;6.95;;;;;;;;;;4998739;28;20113;-69
2023/09/14 08:15:07;;;;;;;13.88;6.00;;;;;;;;;;5015266;28;20056;-69
2023/09/14 08:17:33;;;;;;;15.10;5.90;;;;;;;;;;5010921;28;20045;-69
2023/09/14 08:20:00;;;;;;;19.85;6.32;;;;;;;;;;5010478;28;20445;-70
2023/09/14 08:22:26;;;;;;;18.52;6.45;;;;;;;;;;5011768;28;20180;-69
2023/09/14 08:24:53;;;;;;;18.48;6.30;;;;;;;;;;5009668;28;20077;-69
2023/09/14 08:27:20;;;;;;;12.88;6.10;;;;;;;;;;5011020;28;20065;-70
2023/09/14 08:29:46;;;;;;;14.93;5.88;;;;;;;;;;5011636;28;20499;-69
2023/09/14 08:32:12;;;;;;;14.68;5.90;;;;;;;;;;5010022;28;20048;-69
2023/09/14 08:34:38;;;;;;;17.83;6.03;;;;;;;;;;5011384;28;20029;-69
2023/09/14 08:37:08;;;;;;;20.50;5.82;;;;;;;;;;5009153;28;20554;-70
2023/09/14 08:39:34;;;;;;;15.68;5.57;;;;;;;;;;5009556;28;20022;-70
2023/09/14 08:42:00;;;;;;;16.08;6.35;;;;;;;;;;5000028;28;20092;-70
2023/09/14 08:44:27;;;;;;;15.43;5.82;;;;;;;;;;4997597;28;20045;-71
2023/09/14 08:46:55;;;;;;;14.85;5.43;;;;;;;;;;5010460;28;20113;-70
2023/09/14 08:49:22;;;;;;;15.38;5.85;;;;;;;;;;5005470;28;20189;-70
2023/09/14 08:51:49;;;;;;;13.10;5.80;;;;;;;;;;4990935;28;20334;-70
2023/09/14 08:54:15;;;;;;;12.93;5.28;;;;;;;;;;4998213;28;20116;-69
2023/09/14 08:56:41;;;;;;;12.30;5.40;;;;;;;;;;5002062;28;20041;-69
2023/09/14 08:59:10;;;;;;;11.43;5.45;;;;;;;;;;5009357;28;20388;-70
2023/09/14 09:01:37;;;;;;;16.88;6.63;;;;;;;;;;5010046;28;20037;-69
2023/09/14 09:04:03;;;;;;;10.88;5.53;;;;;;;;;;5010086;28;20026;-70
2023/09/14 09:06:30;;;;;;;10.50;5.38;;;;;;;;;;5008587;28;20036;-70
2023/09/14 09:08:58;;;;;;;11.32;6.20;;;;;;;;;;5009922;28;20116;-72
2023/09/14 09:11:24;;;;;;;13.48;5.70;;;;;;;;;;5008561;28;20044;-71
2023/09/14 09:13:50;;;;;;;11.82;5.28;;;;;;;;;;5007963;28;20033;-72
2023/09/14 09:16:16;;;;;;;11.95;5.57;;;;;;;;;;5009981;28;20034;-69
2023/09/14 09:19:02;;;;;;;16.95;5.88;;;;;;;;;;5007638;28;20061;-69
2023/09/14 09:21:29;;;;;;;15.07;5.60;;;;;;;;;;5009589;28;20363;-71
2023/09/14 09:23:55;;;;;;;17.02;5.72;;;;;;;;;;5010265;28;20026;-69
2023/09/14 09:26:21;;;;;;;13.73;5.63;;;;;;;;;;5009325;28;20577;-69
2023/09/14 09:28:48;;;;;;;14.70;6.30;;;;;;;;;;5008041;28;20072;-69
2023/09/14 09:31:14;;;;;;;16.38;5.90;;;;;;;;;;4994152;28;20042;-69
2023/09/14 09:33:41;;;;;;;13.43;5.18;;;;;;;;;;5009718;28;20062;-69
2023/09/14 09:36:17;;;;;;;12.93;6.47;;;;;;;;;;5009498;28;20487;-70
2023/09/14 09:38:45;;;;;;;15.82;5.97;;;;;;;;;;5009194;28;20037;-69
2023/09/14 09:41:11;;;;;;;17.40;6.00;;;;;;;;;;4990824;28;20427;-70
2023/09/14 09:43:41;;;;;;;15.00;6.40;;;;;;;;;;5009199;28;20026;-69
2023/09/14 09:46:14;;;;;;;14.30;5.57;;;;;;;;;;5009561;28;20483;-69
2023/09/14 09:48:41;;;;;;;14.05;6.07;;;;;;;;;;5009787;28;20042;-69
2023/09/14 09:51:08;;;;;;;27.23;6.13;;;;;;;;;;5007642;28;20044;-69
2023/09/14 09:53:35;;;;;;;15.25;6.30;;;;;;;;;;5010463;28;20034;-69
2023/09/14 09:56:02;;;;;;;13.48;6.70;;;;;;;;;;5007838;28;20154;-69
2023/09/14 09:58:35;;;;;;;12.45;6.25;;;;;;;;;;5003510;28;20042;-68
2023/09/14 10:01:01;;;;;;;14.90;6.78;;;;;;;;;;5002320;28;20022;-69
2023/09/14 10:03:27;;;;;;;13.50;5.93;;;;;;;;;;5009598;28;20037;-70
2023/09/14 10:05:53;;;;;;;14.23;5.70;;;;;;;;;;5009063;28;20053;-69
2023/09/14 10:08:20;;;;;;;14.50;5.88;;;;;;;;;;4993199;28;20065;-69
2023/09/14 10:10:51;;;;;;;10.35;4.90;;;;;;;;;;5008133;28;20073;-69
2023/09/14 10:13:20;;;;;;;11.63;4.82;;;;;;;;;;5009754;28;20104;-69
2023/09/14 10:15:47;;;;;;;12.70;4.88;;;;;;;;;;5001752;28;20034;-70
2023/09/14 10:18:13;;;;;;;12.32;5.03;;;;;;;;;;5009396;28;20498;-69
2023/09/14 10:20:39;;;;;;;10.98;4.57;;;;;;;;;;5007949;28;20094;-69
2023/09/14 10:23:06;;;;;;;10.38;5.20;;;;;;;;;;5007457;28;20096;-69
2023/09/14 10:25:32;;;;;;;12.73;6.05;;;;;;;;;;5006121;28;20087;-69
2023/09/14 10:28:00;;;;;;;10.55;5.10;;;;;;;;;;5006140;28;20038;-69
2023/09/14 10:30:27;;;;;;;12.82;5.80;;;;;;;;;;5009297;28;20048;-69
2023/09/14 10:32:55;;;;;;;10.50;4.47;;;;;;;;;;5005088;28;20109;-69
2023/09/14 10:35:22;;;;;;;12.45;5.00;;;;;;;;;;5009363;28;20172;-70
2023/09/14 10:37:49;;;;;;;12.27;4.85;;;;;;;;;;5008005;28;20495;-70
2023/09/14 10:40:17;;;;;;;11.30;4.47;;;;;;;;;;5012422;28;20029;-70
2023/09/14 10:42:43;;;;;;;13.90;5.15;;;;;;;;;;5013519;28;20033;-70
2023/09/14 10:45:10;;;;;;;10.15;4.30;;;;;;;;;;5013337;28;20077;-70
2023/09/14 10:47:38;;;;;;;9.45;3.72;;;;;;;;;;5007560;28;20038;-70
2023/09/14 10:50:08;;;;;;;51.25;5.72;;;;;;;;;;5010177;28;20466;-70
2023/09/14 10:52:34;;;;;;;;;;;;;;;;;;5023633;28;20403;-68
2023/09/14 10:55:04;;;;;;;12.07;3.45;;;;;;;;;;5012705;28;20303;-71
2023/09/14 10:57:30;;;;;;;7.70;3.92;;;;;;;;;;5011724;28;20037;-70
2023/09/14 11:00:01;;;;;;;10.48;3.97;;;;;;;;;;5012623;28;20137;-70
2023/09/14 11:02:39;;;;;;;11.73;4.10;;;;;;;;;;5011300;28;20037;-70
2023/09/14 11:05:18;;;;;;;11.27;3.58;;;;;;;;;;5012789;28;20028;-70
2023/09/14 11:07:47;;;;;;;9.45;3.92;;;;;;;;;;5011209;28;20049;-69
2023/09/14 11:10:17;;;;;;;14.00;4.05;;;;;;;;;;5012742;28;20088;-69
2023/09/14 11:12:44;;;;;;;11.17;3.27;;;;;;;;;;5012937;28;20110;-70
2023/09/14 11:15:14;;;;;;;8.65;2.83;;;;;;;;;;5012981;28;20052;-70
2023/09/14 11:17:47;;;;;;;11.60;3.90;;;;;;;;;;4995639;28;20479;-70
2023/09/14 11:20:22;;;;;;;9.07;3.40;;;;;;;;;;5007812;28;20026;-70
2023/09/14 11:22:49;;;;;;;10.57;3.40;;;;;;;;;;5012807;28;20036;-70
2023/09/14 11:25:25;;;;;;;10.57;3.63;;;;;;;;;;5012696;28;20037;-70
2023/09/14 11:27:52;;;;;;;12.27;4.30;;;;;;;;;;5011481;28;20105;-69
2023/09/14 11:30:20;;;;;;;9.30;3.95;;;;;;;;;;5010350;28;20026;-69
2023/09/14 11:32:46;;;;;;;11.80;3.72;;;;;;;;;;5000435;28;20033;-70
2023/09/14 11:35:12;;;;;;;8.00;3.75;;;;;;;;;;5011238;28;20037;-70
2023/09/14 11:37:43;;;;;;;7.45;3.88;;;;;;;;;;5005439;28;20096;-70
2023/09/14 11:40:16;;;;;;;12.75;4.38;;;;;;;;;;5009307;28;20033;-69
2023/09/14 11:43:25;;;;;;;16.10;4.43;;;;;;;;;;4997234;28;20026;-69
2023/09/14 11:45:56;;;;;;;10.27;4.03;;;;;;;;;;4963247;28;20041;-69
2023/09/14 11:48:23;;;;;;;11.35;4.47;;;;;;;;;;5006566;28;20064;-69
2023/09/14 11:50:50;;;;;;;10.35;4.13;;;;;;;;;;5011482;28;20034;-69
2023/09/14 11:53:19;;;;;;;9.48;4.30;;;;;;;;;;5010283;28;20038;-69
2023/09/14 11:55:50;;;;;;;13.05;4.40;;;;;;;;;;5011828;28;20407;-70
2023/09/14 11:58:17;;;;;;;17.88;5.10;;;;;;;;;;5010294;28;20037;-69
2023/09/14 12:00:49;;;;;;;11.82;4.88;;;;;;;;;;5011796;28;20038;-71
2023/09/14 12:03:15;;;;;;;12.02;4.57;;;;;;;;;;5011410;28;20064;-70
2023/09/14 12:05:42;;;;;;;18.65;4.53;;;;;;;;;;5011075;28;20030;-70
2023/09/14 12:08:18;;;;;;;10.20;4.10;;;;;;;;;;4997653;28;20026;-70
2023/09/14 12:10:46;;;;;;;9.52;4.50;;;;;;;;;;5009952;28;20034;-70
2023/09/14 12:13:13;;;;;;;9.57;4.60;;;;;;;;;;5009272;28;20038;-70
2023/09/14 12:15:39;;;;;;;9.27;4.50;;;;;;;;;;5018540;28;20033;-70
2023/09/14 12:18:06;;;;;;;12.35;4.60;;;;;;;;;;5011703;28;20446;-71
2023/09/14 12:20:34;;;;;;;10.18;5.15;;;;;;;;;;5018429;28;20034;-71
2023/09/14 12:23:01;;;;;;;10.13;5.28;;;;;;;;;;5010772;28;20048;-72
2023/09/14 12:25:27;;;;;;;10.50;5.03;;;;;;;;;;5018170;28;20056;-70
2023/09/14 12:27:53;;;;;;;13.52;5.30;;;;;;;;;;5031615;28;20038;-71
2023/09/14 12:30:19;;;;;;;8.88;4.43;;;;;;;;;;5018709;28;20048;-70
2023/09/14 12:32:45;;;;;;;11.57;4.28;;;;;;;;;;5019189;28;20030;-70
2023/09/14 12:35:12;;;;;;;12.70;4.43;;;;;;;;;;5006760;28;20030;-69
2023/09/14 12:37:39;;;;;;;10.88;4.05;;;;;;;;;;5003416;28;20077;-71
2023/09/14 12:40:10;;;;;;;8.80;3.95;;;;;;;;;;5004100;28;20113;-69
2023/09/14 12:42:36;;;;;;;16.25;4.50;;;;;;;;;;5005424;28;20034;-70
2023/09/14 12:45:07;;;;;;;9.30;3.90;;;;;;;;;;5010625;28;20108;-70
2023/09/14 12:47:34;;;;;;;12.13;3.90;;;;;;;;;;5008852;28;20365;-70
2023/09/14 12:50:00;;;;;;;10.07;3.78;;;;;;;;;;5007204;28;20034;-70
2023/09/14 12:52:27;;;;;;;7.72;4.28;;;;;;;;;;5005052;28;20033;-69
2023/09/14 12:54:53;;;;;;;12.95;5.13;;;;;;;;;;5009521;28;20026;-69
2023/09/14 12:57:19;;;;;;;9.95;4.00;;;;;;;;;;5007909;28;20057;-70
2023/09/14 13:00:07;;;;;;;8.10;4.10;;;;;;;;;;5010468;28;20034;-70
2023/09/14 13:02:35;;;;;;;10.25;4.38;;;;;;;;;;5003854;28;20399;-75
2023/09/14 13:05:04;;;;;;;9.15;4.25;;;;;;;;;;5008089;28;20073;-70
2023/09/14 13:07:31;;;;;;;9.77;4.25;;;;;;;;;;5006191;28;20033;-70
2023/09/14 13:10:07;;;;;;;10.57;3.88;;;;;;;;;;5004599;28;20450;-71
2023/09/14 13:12:33;;;;;;;9.30;3.90;;;;;;;;;;5008485;28;20203;-69
2023/09/14 13:14:59;;;;;;;11.63;3.90;;;;;;;;;;5010395;28;20042;-69
2023/09/14 13:17:25;;;;;;;9.27;3.90;;;;;;;;;;5008584;28;20887;-70
2023/09/14 13:19:52;;;;;;;15.60;4.57;;;;;;;;;;5004965;28;20103;-69
2023/09/14 13:22:20;;;;;;;10.32;4.10;;;;;;;;;;4999138;28;20394;-69
2023/09/14 13:24:46;;;;;;;10.98;4.10;;;;;;;;;;5007427;28;20341;-70
2023/09/14 13:27:12;;;;;;;21.20;4.78;;;;;;;;;;5012945;28;20164;-70
2023/09/14 13:29:38;;;;;;;11.52;4.25;;;;;;;;;;5016977;28;20046;-70
2023/09/14 13:32:04;;;;;;;7.13;3.95;;;;;;;;;;5011790;28;20092;-70
2023/09/14 13:34:30;;;;;;;8.27;3.97;;;;;;;;;;5009699;28;20034;-70
2023/09/14 13:36:56;;;;;;;7.85;4.18;;;;;;;;;;5008107;28;20045;-69
2023/09/14 13:39:23;;;;;;;15.82;4.60;;;;;;;;;;5012982;28;20403;-70
2023/09/14 13:41:49;;;;;;;10.52;4.68;;;;;;;;;;5011854;28;20041;-70
2023/09/14 13:44:15;;;;;;;9.15;3.42;;;;;;;;;;5015544;28;20041;-69
2023/09/14 13:46:41;;;;;;;9.93;4.25;;;;;;;;;;5015622;28;20034;-69
2023/09/14 13:49:07;;;;;;;13.65;4.25;;;;;;;;;;5015416;28;20046;-69
2023/09/14 13:51:33;;;;;;;9.65;4.35;;;;;;;;;;5007399;28;20072;-69
2023/09/14 13:54:00;;;;;;;10.25;4.20;;;;;;;;;;5017790;28;20061;-70
2023/09/14 13:56:26;;;;;;;9.85;4.65;;;;;;;;;;5019601;28;20040;-69
2023/09/14 13:58:52;;;;;;;10.10;4.60;;;;;;;;;;5012976;28;20029;-69
2023/09/14 14:01:20;;;;;;;8.55;4.45;;;;;;;;;;5012101;28;20053;-69
2023/09/14 14:03:47;;;;;;;16.42;5.43;;;;;;;;;;5009740;28;20033;-69
2023/09/14 14:06:13;;;;;;;15.73;5.22;;;;;;;;;;5022566;28;20071;-69
2023/09/14 14:08:39;;;;;;;12.85;5.07;;;;;;;;;;5016527;28;20379;-68
2023/09/14 14:11:05;;;;;;;18.02;5.20;;;;;;;;;;5018280;28;20084;-72
2023/09/14 14:13:32;;;;;;;13.18;5.50;;;;;;;;;;5006430;28;20053;-69
2023/09/14 14:15:58;;;;;;;9.38;4.40;;;;;;;;;;5015269;28;20060;-69
2023/09/14 14:18:25;;;;;;;12.00;4.57;;;;;;;;;;5014393;28;20041;-70
2023/09/14 14:20:51;;;;;;;15.00;5.38;;;;;;;;;;5018486;28;20021;-69
2023/09/14 14:23:17;;;;;;;12.00;4.47;;;;;;;;;;5013878;28;20038;-69
2023/09/14 14:25:44;;;;;;;11.52;4.63;;;;;;;;;;5020806;28;20033;-69
2023/09/14 14:28:10;;;;;;;37.42;5.30;;;;;;;;;;5018178;28;20034;-70
2023/09/14 14:30:36;;;;;;;12.80;4.55;;;;;;;;;;5018199;28;20026;-70